»·PEaware :: N54MM KSMX-KSBP

N54MM :: KSMX-KSBP

FLIGHT INFORMATION

Flight Status: Arrived
Operator: Privately registered:
United States
More flights under this callsign
Pilot: Adam H. (10711)
Aircraft: CESSNA T210 TURBO CENTURION
(T210)
More flights by this aircraft type
Origin: KSMX Santa Maria Pub/Capt Hancock
United States
Destination: KSBP San Luis Co Regl
United States
More flights between these airports :: More routes between these airports
Route: +GLJ MQO
File this flight plan on PilotEdge
Remarks:
Altitude:
(Current/Filed)
50ft
Speed:
(Current/Filed)
140kts
Departed: 10-Sep-18 12:33 PM
Arrived: 10-Sep-18 01:26 PM
Distance/Time
Traveled:
22nm/0:53
Distance/Time
To Go:
Arrived

Flight Plot

Page will automatically refresh every two minutes.


Map Options




Map Legend


Flown Route
Filed Route
Departure Airport
Arrival Airport
Navaid (VOR, NDB)
Fix

Horizontal Profiles

Position Reports

Time Latitude Longitude Heading Altitude Ground
Speed
10-Sep-18 12:22 34.901385 -120.450786 154 265ft 0kts
10-Sep-18 12:23 34.901385 -120.450786 154 265ft 0kts
10-Sep-18 12:24 34.901385 -120.450786 154 265ft 0kts
10-Sep-18 12:25 34.901385 -120.450786 154 265ft 0kts
10-Sep-18 12:26 34.901385 -120.450786 154 265ft 0kts
10-Sep-18 12:27 34.901385 -120.450786 154 265ft 0kts
10-Sep-18 12:28 34.901385 -120.450786 154 265ft 0kts
10-Sep-18 12:29 34.900168 -120.450669 178 265ft 9kts
10-Sep-18 12:30 34.898061 -120.449529 130 265ft 13kts
10-Sep-18 12:31 34.895030 -120.445963 136 265ft 16kts
10-Sep-18 12:32 34.893437 -120.444839 180 265ft 0kts
10-Sep-18 12:33 34.893438 -120.444839 180 265ft 0kts
10-Sep-18 12:34 34.892798 -120.445797 314 265ft 2kts
10-Sep-18 12:35 34.908810 -120.465061 309 1448ft 107kts
10-Sep-18 12:36 34.929016 -120.493368 313 3162ft 124kts
10-Sep-18 12:37 34.954982 -120.523955 324 4663ft 135kts
10-Sep-18 12:38 34.989567 -120.551055 326 4999ft 155kts
10-Sep-18 12:39 35.025828 -120.579706 326 4998ft 155kts
10-Sep-18 12:40 35.061915 -120.608303 327 4998ft 156kts
10-Sep-18 12:41 35.098552 -120.637367 327 4998ft 157kts
10-Sep-18 12:42 35.135263 -120.666517 327 5000ft 158kts
10-Sep-18 12:43 35.172201 -120.695883 327 5000ft 159kts
10-Sep-18 12:44 35.209259 -120.725382 327 5000ft 159kts
10-Sep-18 12:45 35.246923 -120.753744 325 5017ft 158kts
10-Sep-18 12:46 35.277347 -120.790722 324 5209ft 155kts
10-Sep-18 12:47 35.314243 -120.821893 325 5024ft 164kts
10-Sep-18 12:48 35.351129 -120.853881 324 4948ft 160kts
10-Sep-18 12:49 35.362343 -120.901498 278 4921ft 115kts
10-Sep-18 12:50 35.380649 -120.922155 27 4946ft 110kts
10-Sep-18 12:51 35.377022 -120.894310 121 5034ft 130kts
10-Sep-18 12:52 35.351762 -120.844356 124 4683ft 197kts
10-Sep-18 12:53 35.322209 -120.789865 123 3691ft 151kts
10-Sep-18 12:54 35.300013 -120.753653 128 2229ft 133kts
10-Sep-18 12:55 35.284024 -120.722897 120 1608ft 82kts
10-Sep-18 12:56 35.266876 -120.692213 122 1137ft 117kts
10-Sep-18 12:57 35.250679 -120.664649 120 489ft 87kts
10-Sep-18 12:58 35.238817 -120.643156 121 231ft 82kts
10-Sep-18 12:59 35.214100 -120.619315 172 1201ft 157kts
10-Sep-18 13:00 35.170460 -120.617143 184 2155ft 151kts
10-Sep-18 13:01 35.156816 -120.654085 269 3295ft 158kts
10-Sep-18 13:02 35.178648 -120.704041 316 3267ft 161kts
10-Sep-18 13:03 35.212995 -120.728853 339 3255ft 136kts
10-Sep-18 13:04 35.244129 -120.752257 313 3257ft 132kts
10-Sep-18 13:05 35.248360 -120.787467 198 3256ft 135kts
10-Sep-18 13:06 35.218636 -120.763235 133 3257ft 135kts
10-Sep-18 13:07 35.208515 -120.726791 33 3256ft 131kts
10-Sep-18 13:08 35.238295 -120.745751 315 3257ft 132kts
10-Sep-18 13:09 35.255204 -120.781411 239 3256ft 134kts
10-Sep-18 13:10 35.224478 -120.771581 135 3257ft 135kts
10-Sep-18 13:11 35.197276 -120.740045 135 3257ft 135kts
10-Sep-18 13:12 35.170700 -120.721556 206 3266ft 117kts
10-Sep-18 13:13 35.136106 -120.734344 189 3258ft 139kts
10-Sep-18 13:14 35.098453 -120.722177 161 3257ft 142kts
10-Sep-18 13:15 35.066094 -120.695535 133 3258ft 142kts
10-Sep-18 13:16 35.048674 -120.652916 107 3259ft 142kts
10-Sep-18 13:17 35.035061 -120.607131 108 3262ft 144kts
10-Sep-18 13:18 35.021223 -120.561059 108 3265ft 146kts
10-Sep-18 13:19 35.032344 -120.520854 34 3267ft 140kts
10-Sep-18 13:20 35.063533 -120.492096 32 3270ft 146kts
10-Sep-18 13:21 35.098696 -120.460235 33 3265ft 162kts
10-Sep-18 13:22 35.134794 -120.468158 310 3263ft 158kts
10-Sep-18 13:23 35.163006 -120.512648 307 2827ft 172kts
10-Sep-18 13:24 35.188100 -120.554601 305 2009ft 104kts
10-Sep-18 13:25 35.202915 -120.580657 304 1438ft 87kts
10-Sep-18 13:26 35.216554 -120.604557 304 930ft 90kts
10-Sep-18 13:27 35.229898 -120.627934 304 388ft 67kts
10-Sep-18 13:28 35.236874 -120.639905 340 191ft 17kts

Navigation Log

Ident Type
1. KSMX Airport
2. GLJ Navaid
3. MQO Navaid
4. KSBP Airport